Time;durP1;ratioP1;P1;durP2;ratioP2;P2;SDS_P1;SDS_P2;PMS_P1;PMS_P2;Temp;Humidity;BMP_temperature;BMP_pressure;BME280_temperature;BME280_humidity;BME280_pressure;Samples;Min_cycle;Max_cycle;Signal;HPM_P1;HPM_P2
2021/06/06 08:50:39;;;;;;;8.93;1.67;;;;;;;;;;5180304;27;20169;-56
2021/06/06 08:53:22;;;;;;;10.98;1.63;;;;;;;;;;5155141;28;20466;-57
2021/06/06 08:56:05;;;;;;;14.45;1.58;;;;;;;;;;5158122;28;20151;-60
2021/06/06 08:58:38;;;;;;;8.93;1.48;;;;;;;;;;5135611;28;20050;-60
2021/06/06 09:01:14;;;;;;;9.77;1.80;;;;;;;;;;5139489;23;20556;-74
2021/06/06 09:03:48;;;;;;;8.48;1.77;;;;;;;;;;5172083;28;20292;-75
2021/06/06 09:06:32;;;;;;;10.18;1.55;;;;;;;;;;5146015;28;20053;-74
2021/06/06 09:09:06;;;;;;;8.48;1.38;;;;;;;;;;5142188;28;20966;-74
2021/06/06 09:11:39;;;;;;;8.45;1.40;;;;;;;;;;5156160;28;20045;-74
2021/06/06 09:14:12;;;;;;;8.85;2.35;;;;;;;;;;5150405;28;20439;-75
2021/06/06 09:16:51;;;;;;;3.13;1.30;;;;;;;;;;5160647;28;20038;-75
2021/06/06 09:19:24;;;;;;;6.15;1.30;;;;;;;;;;5165111;28;20684;-76
2021/06/06 09:21:59;;;;;;;8.38;1.40;;;;;;;;;;5172323;28;20049;-76
2021/06/06 09:24:34;;;;;;;3.78;1.23;;;;;;;;;;5131559;28;20733;-75
2021/06/06 09:27:12;;;;;;;5.78;1.30;;;;;;;;;;5120960;28;20049;-75
2021/06/06 09:29:45;;;;;;;6.03;1.17;;;;;;;;;;5116481;28;20352;-78
2021/06/06 09:32:22;;;;;;;4.70;1.20;;;;;;;;;;5148248;28;20053;-78
2021/06/06 09:35:05;;;;;;;4.60;1.58;;;;;;;;;;5134083;28;20052;-78
2021/06/06 09:37:44;;;;;;;4.32;1.60;;;;;;;;;;5155065;28;20481;-76
2021/06/06 09:40:46;;;;;;;5.57;1.20;;;;;;;;;;5145730;28;20248;-75
2021/06/06 09:43:24;;;;;;;6.25;1.45;;;;;;;;;;5120006;28;20049;-73
2021/06/06 09:46:05;;;;;;;4.28;1.50;;;;;;;;;;5178556;28;20284;-75
2021/06/06 09:48:43;;;;;;;4.13;1.30;;;;;;;;;;5182495;28;20047;-74
2021/06/06 09:51:22;;;;;;;7.10;1.10;;;;;;;;;;5159279;28;20060;-76
2021/06/06 09:54:06;;;;;;;10.15;1.50;;;;;;;;;;5197398;28;20036;-75
2021/06/06 09:56:40;;;;;;;9.20;1.55;;;;;;;;;;5179144;28;20037;-75
2021/06/06 09:59:18;;;;;;;12.73;1.20;;;;;;;;;;5173983;28;20052;-75
2021/06/06 10:01:51;;;;;;;9.30;1.45;;;;;;;;;;5150583;28;20060;-73
2021/06/06 10:04:29;;;;;;;9.75;1.58;;;;;;;;;;5149160;28;20421;-77
2021/06/06 10:07:10;;;;;;;13.20;1.50;;;;;;;;;;5167280;28;20379;-80
2021/06/06 10:09:51;;;;;;;6.45;1.40;;;;;;;;;;5158012;28;20604;-80
2021/06/06 10:12:56;;;;;;;11.50;1.67;;;;;;;;;;5151630;28;21816;-76
2021/06/06 10:15:41;;;;;;;10.50;1.35;;;;;;;;;;5091079;28;20048;-76
2021/06/06 10:18:19;;;;;;;12.48;1.58;;;;;;;;;;5159584;28;20140;-77
2021/06/06 10:20:59;;;;;;;7.93;1.40;;;;;;;;;;5154996;28;20049;-77
2021/06/06 10:23:41;;;;;;;6.18;1.65;;;21.80;68.60;;;;;;5177155;28;20056;-67
2021/06/06 10:26:35;;;;;;;12.98;1.52;;;25.00;64.00;;;;;;5176292;28;20055;-70
2021/06/06 10:29:33;;;;;;;16.90;1.45;;;25.10;62.90;;;;;;5174994;28;20053;-65
2021/06/06 10:35:18;;;;;;;14.75;1.60;;;25.10;62.20;;;;;;5253740;27;20376;-62
2021/06/06 10:37:54;;;;;;;12.45;1.80;;;25.10;63.20;;;;;;5200158;28;20044;-54
2021/06/06 10:40:45;;;;;;;8.32;1.80;;;25.20;62.70;;;;;;5198061;28;20434;-55
2021/06/06 10:43:33;;;;;;;12.15;1.63;;;25.10;62.20;;;;;;5185775;28;20045;-51
2021/06/06 10:46:24;;;;;;;7.25;1.85;;;25.10;62.30;;;;;;5168996;22;20056;-86
2021/06/06 10:49:32;;;;;;;11.82;2.00;;;25.00;63.10;;;;;;5215013;28;20048;-84
2021/06/06 10:52:23;;;;;;;7.50;1.52;;;25.00;62.30;;;;;;5148509;28;20055;-85
2021/06/06 10:55:13;;;;;;;13.65;1.73;;;25.00;63.60;;;;;;5194783;28;20044;-87
2021/06/06 10:57:48;;;;;;;8.20;1.50;;;25.00;63.30;;;;;;5213401;28;20041;-87
2021/06/06 11:00:24;;;;;;;14.75;1.83;;;25.00;62.90;;;;;;5207398;28;20044;-84
2021/06/06 11:03:01;;;;;;;12.40;1.98;;;25.00;63.00;;;;;;5184165;28;28346;-85
2021/06/06 11:05:48;;;;;;;4.63;0.93;;;24.90;62.70;;;;;;5202069;28;20053;-89
2021/06/06 11:08:27;;;;;;;1.27;0.60;;;24.80;62.90;;;;;;5251505;28;20087;-89
2021/06/06 11:11:16;;;;;;;1.73;1.00;;;24.50;63.90;;;;;;5213755;28;20049;-86
2021/06/06 11:13:52;;;;;;;5.38;0.98;;;23.90;64.80;;;;;;5203278;28;20047;-87
2021/06/06 11:16:31;;;;;;;2.60;0.80;;;23.70;65.10;;;;;;5199795;28;20044;-86
2021/06/06 11:19:14;;;;;;;6.78;1.90;;;23.70;65.10;;;;;;5190438;28;20317;-85
2021/06/06 11:22:09;;;;;;;8.45;0.90;;;23.80;66.00;;;;;;5188156;28;20051;-84
2021/06/06 11:24:42;;;;;;;3.33;0.88;;;24.00;64.80;;;;;;5191463;28;20040;-85
2021/06/06 11:27:29;;;;;;;3.50;0.97;;;24.10;64.50;;;;;;5199301;28;20447;-85
2021/06/06 11:30:29;;;;;;;6.55;0.93;;;24.30;64.20;;;;;;5188393;28;20048;-84
2021/06/06 11:33:10;;;;;;;3.72;0.80;;;24.40;64.10;;;;;;5179746;28;20087;-86
2021/06/06 11:35:48;;;;;;;2.15;0.90;;;24.50;64.00;;;;;;5172107;28;20048;-85
2021/06/06 11:38:36;;;;;;;7.18;0.85;;;24.60;63.70;;;;;;5182462;28;20411;-85
2021/06/06 11:41:24;;;;;;;2.80;0.90;;;24.60;63.40;;;;;;5182096;28;20048;-85
2021/06/06 11:44:33;;;;;;;2.95;0.88;;;24.70;63.20;;;;;;5185301;28;20091;-85
2021/06/06 11:47:07;;;;;;;4.18;1.40;;;24.80;62.90;;;;;;5179931;28;20045;-85
2021/06/06 11:49:52;;;;;;;11.15;1.50;;;24.90;62.90;;;;;;5177539;28;20064;-84
2021/06/06 11:52:36;;;;;;;10.75;1.77;;;24.90;63.10;;;;;;5171997;28;20049;-84
2021/06/06 11:55:28;;;;;;;4.75;1.77;;;25.00;62.50;;;;;;5193315;28;20045;-86
2021/06/06 11:58:07;;;;;;;7.07;2.60;;;25.00;62.50;;;;;;5170994;28;20052;-85
2021/06/06 12:00:50;;;;;;;9.13;2.22;;;25.10;62.50;;;;;;5169648;28;20045;-88
2021/06/06 12:03:23;;;;;;;15.55;2.65;;;25.10;62.80;;;;;;5178611;28;20067;-85
2021/06/06 12:06:03;;;;;;;7.82;2.40;;;25.20;61.90;;;;;;5175257;28;20053;-88
2021/06/06 12:13:38;;;;;;;10.25;1.90;;;25.30;61.90;;;;;;5710984;22;20055;-61
2021/06/06 12:16:19;;;;;;;7.43;2.47;;;25.30;61.70;;;;;;5207218;28;20067;-61
2021/06/06 12:19:07;;;;;;;6.50;1.77;;;25.40;61.60;;;;;;5215902;28;20420;-61
2021/06/06 12:21:45;;;;;;;9.20;2.22;;;25.30;61.30;;;;;;5204907;28;26462;-62
2021/06/06 12:24:26;;;;;;;4.80;1.95;;;25.30;61.50;;;;;;5168669;28;20479;-61
2021/06/06 12:27:18;;;;;;;9.82;2.22;;;25.30;61.70;;;;;;5140075;28;20049;-60
2021/06/06 12:29:57;;;;;;;5.38;1.98;;;25.30;61.60;;;;;;5147563;28;20519;-61
2021/06/06 12:32:34;;;;;;;5.78;1.70;;;25.20;61.40;;;;;;5154995;28;20053;-60
2021/06/06 12:35:17;;;;;;;4.53;2.08;;;25.20;61.70;;;;;;5151061;28;20053;-59
2021/06/06 12:37:55;;;;;;;4.38;1.85;;;25.20;61.60;;;;;;5164363;28;20341;-58
2021/06/06 12:40:35;;;;;;;7.43;2.03;;;25.10;61.60;;;;;;5168295;28;20046;-57
2021/06/06 12:43:09;;;;;;;6.10;1.75;;;25.10;61.70;;;;;;5156189;28;20045;-59
2021/06/06 12:45:44;;;;;;;8.38;2.20;;;25.10;61.80;;;;;;5154766;28;20217;-62
2021/06/06 12:48:32;;;;;;;4.72;1.83;;;25.10;62.10;;;;;;5150977;28;20053;-60
2021/06/06 12:51:31;;;;;;;3.45;1.20;;;25.10;61.70;;;;;;5163313;28;20045;-58
2021/06/06 12:54:12;;;;;;;3.00;1.58;;;25.10;61.60;;;;;;5162415;28;20563;-60
2021/06/06 12:56:47;;;;;;;4.35;1.50;;;25.10;61.80;;;;;;5159101;28;20065;-57
2021/06/06 12:59:23;;;;;;;4.15;1.80;;;25.10;61.70;;;;;;5133114;28;20072;-60
2021/06/06 13:02:22;;;;;;;5.95;1.55;;;25.10;61.80;;;;;;5156221;28;20049;-62
2021/06/06 13:05:09;;;;;;;4.78;1.80;;;25.10;61.90;;;;;;5140256;28;20071;-61
2021/06/06 13:07:42;;;;;;;6.60;1.95;;;25.10;61.90;;;;;;5151983;28;20049;-62
2021/06/06 13:10:26;;;;;;;3.53;1.77;;;25.10;62.00;;;;;;5151501;28;20044;-62
2021/06/06 13:12:59;;;;;;;6.40;1.75;;;25.00;62.00;;;;;;5149758;28;20757;-60
2021/06/06 13:15:39;;;;;;;4.88;1.80;;;25.00;61.90;;;;;;5148855;28;20041;-59
2021/06/06 13:18:22;;;;;;;6.07;1.65;;;25.00;62.00;;;;;;5155143;28;20049;-60
2021/06/06 13:21:01;;;;;;;5.97;1.70;;;25.00;62.10;;;;;;5157629;28;20053;-62
2021/06/06 13:23:39;;;;;;;5.90;1.90;;;25.00;62.00;;;;;;5160685;28;20504;-61
2021/06/06 13:26:24;;;;;;;4.65;1.80;;;25.00;62.10;;;;;;5139044;28;20536;-61
2021/06/06 13:29:15;;;;;;;4.00;1.40;;;25.00;62.10;;;;;;5159337;28;20057;-62
2021/06/06 13:31:51;;;;;;;3.05;1.50;;;24.90;62.10;;;;;;5146218;28;20662;-62
2021/06/06 13:34:24;;;;;;;5.75;2.15;;;24.90;62.30;;;;;;5127268;28;20342;-61
2021/06/06 13:36:59;;;;;;;5.80;1.80;;;25.00;62.30;;;;;;5129727;28;20041;-61
2021/06/06 13:39:34;;;;;;;6.20;1.60;;;25.00;62.30;;;;;;5146922;28;20485;-59
2021/06/06 13:42:10;;;;;;;7.18;1.60;;;25.00;62.30;;;;;;5129206;28;20092;-62
2021/06/06 13:44:42;;;;;;;3.75;1.63;;;25.00;62.10;;;;;;5131302;28;22646;-62
2021/06/06 13:47:24;;;;;;;2.13;1.50;;;25.00;62.00;;;;;;5154172;28;20195;-61
2021/06/06 13:49:56;;;;;;;3.92;1.60;;;25.00;62.20;;;;;;5175211;28;20053;-60
2021/06/06 13:52:29;;;;;;;5.25;1.88;;;25.00;62.10;;;;;;5170781;28;20053;-59
2021/06/06 13:55:08;;;;;;;7.20;2.07;;;25.00;62.10;;;;;;5165743;28;20603;-56
2021/06/06 13:57:41;;;;;;;5.28;1.90;;;25.10;61.90;;;;;;5167721;28;20049;-58
2021/06/06 14:00:18;;;;;;;9.90;3.17;;;25.10;61.80;;;;;;5172154;28;20434;-56
2021/06/06 14:03:00;;;;;;;7.15;2.13;;;25.20;62.00;;;;;;5175437;28;20054;-60
2021/06/06 14:05:33;;;;;;;8.77;2.10;;;25.20;62.30;;;;;;5158419;28;20049;-59
2021/06/06 14:08:08;;;;;;;6.47;2.20;;;25.20;62.50;;;;;;5171412;28;20611;-59
2021/06/06 14:10:45;;;;;;;5.90;1.92;;;25.20;62.50;;;;;;5172408;28;20057;-57
2021/06/06 14:13:30;;;;;;;4.28;2.00;;;25.20;62.40;;;;;;5153462;28;20049;-56
2021/06/06 14:16:06;;;;;;;7.28;2.38;;;25.20;62.60;;;;;;5182255;28;20085;-61
2021/06/06 14:18:40;;;;;;;8.35;2.88;;;25.20;62.50;;;;;;5181209;28;25261;-58
2021/06/06 14:21:16;;;;;;;8.98;2.20;;;25.20;62.50;;;;;;5180077;28;21264;-58
2021/06/06 14:24:01;;;;;;;5.82;1.92;;;25.20;62.60;;;;;;5185994;28;20057;-58
2021/06/06 14:26:37;;;;;;;3.45;1.90;;;25.10;62.40;;;;;;5176415;28;20056;-63
2021/06/06 14:29:12;;;;;;;5.35;1.83;;;25.10;62.40;;;;;;5182832;28;20052;-56
2021/06/06 14:31:47;;;;;;;4.72;1.70;;;25.10;62.40;;;;;;5163285;28;20065;-58
2021/06/06 14:34:20;;;;;;;8.68;2.00;;;25.10;62.60;;;;;;5171624;28;21065;-57
2021/06/06 14:36:53;;;;;;;8.85;2.10;;;25.10;62.60;;;;;;5173297;28;20709;-59
2021/06/06 14:39:25;;;;;;;5.97;1.80;;;25.10;62.60;;;;;;5180114;28;22482;-60
2021/06/06 14:41:58;;;;;;;4.05;2.08;;;25.00;62.50;;;;;;5172795;28;20611;-58
2021/06/06 14:44:31;;;;;;;5.47;2.47;;;25.00;62.60;;;;;;5166922;28;20038;-59
2021/06/06 14:47:04;;;;;;;5.43;2.07;;;25.00;62.50;;;;;;5171486;28;20064;-59
2021/06/06 14:49:36;;;;;;;3.57;1.63;;;24.90;62.20;;;;;;5186056;28;20559;-59
2021/06/06 14:52:08;;;;;;;4.82;2.05;;;24.90;62.30;;;;;;5163367;28;20307;-58
2021/06/06 14:54:42;;;;;;;7.13;2.37;;;24.80;62.40;;;;;;5176338;28;20627;-59
2021/06/06 14:57:15;;;;;;;6.82;2.53;;;24.80;62.60;;;;;;5179575;28;20049;-58
2021/06/06 14:59:47;;;;;;;8.38;2.35;;;24.80;62.70;;;;;;5180342;28;20052;-59
2021/06/06 15:02:20;;;;;;;7.68;2.28;;;24.70;62.80;;;;;;5179640;28;20054;-60
2021/06/06 15:04:52;;;;;;;6.25;2.67;;;24.70;62.90;;;;;;5182068;28;20489;-57
2021/06/06 15:07:25;;;;;;;6.68;2.28;;;24.70;63.10;;;;;;5180489;28;20060;-62
2021/06/06 15:09:57;;;;;;;8.00;2.08;;;24.70;63.20;;;;;;5191479;28;20049;-61
2021/06/06 15:12:30;;;;;;;6.60;2.25;;;24.60;63.20;;;;;;5189186;28;20625;-57
2021/06/06 15:15:05;;;;;;;8.15;2.22;;;24.60;63.30;;;;;;5175633;28;20045;-61
2021/06/06 15:17:39;;;;;;;3.65;1.95;;;24.60;63.30;;;;;;5192732;28;20049;-59
2021/06/06 15:20:15;;;;;;;5.82;2.67;;;24.60;63.40;;;;;;5188734;28;20516;-60
2021/06/06 15:22:47;;;;;;;4.50;1.90;;;24.60;63.50;;;;;;5198553;28;20058;-61
2021/06/06 15:25:21;;;;;;;5.28;2.13;;;24.60;63.90;;;;;;5196618;28;20053;-58
2021/06/06 15:27:54;;;;;;;9.48;1.85;;;24.60;63.60;;;;;;5183899;28;20535;-58
2021/06/06 15:30:27;;;;;;;;;;;24.60;63.70;;;;;;5169915;28;20060;-57
2021/06/06 15:33:03;;;;;;;4.43;1.73;;;24.50;63.70;;;;;;5179850;28;20171;-57
2021/06/06 15:35:47;;;;;;;7.05;2.13;;;24.50;63.90;;;;;;5195765;28;20056;-57
2021/06/06 15:38:23;;;;;;;;;;;24.50;63.90;;;;;;5195116;28;20049;-56
2021/06/06 15:41:01;;;;;;;7.82;1.98;;;24.40;64.00;;;;;;5193124;28;21386;-56
2021/06/06 15:43:36;;;;;;;4.70;1.98;;;24.50;64.00;;;;;;5187532;28;20048;-57
2021/06/06 15:46:15;;;;;;;6.97;1.98;;;24.40;64.10;;;;;;5190563;28;20080;-57
2021/06/06 15:48:50;;;;;;;7.82;2.25;;;24.40;64.20;;;;;;5180448;28;20052;-59
2021/06/06 15:52:02;;;;;;;5.72;2.03;;;24.40;64.10;;;;;;5178376;28;20057;-59
2021/06/06 15:54:36;;;;;;;2.90;1.77;;;24.40;64.30;;;;;;5139133;28;20396;-60
2021/06/06 15:57:09;;;;;;;3.58;1.77;;;24.40;64.30;;;;;;5173058;28;20049;-59
2021/06/06 15:59:41;;;;;;;4.50;1.90;;;24.40;64.40;;;;;;5182905;28;21215;-58
2021/06/06 16:02:20;;;;;;;7.15;2.13;;;24.40;64.50;;;;;;5187113;28;20049;-62
2021/06/06 16:04:53;;;;;;;3.15;1.60;;;24.40;64.70;;;;;;5175934;28;20064;-65
2021/06/06 16:07:26;;;;;;;3.22;2.15;;;24.30;64.70;;;;;;5133503;28;25464;-61
2021/06/06 16:09:58;;;;;;;3.85;1.85;;;24.30;64.60;;;;;;5148366;28;20788;-61
2021/06/06 16:12:31;;;;;;;3.45;1.67;;;24.30;64.40;;;;;;5125137;28;20532;-62
2021/06/06 16:15:05;;;;;;;7.20;1.73;;;24.30;64.30;;;;;;5138428;28;20081;-62
2021/06/06 16:17:39;;;;;;;7.30;1.90;;;24.30;64.10;;;;;;5137427;28;20516;-63
2021/06/06 16:20:13;;;;;;;13.85;2.10;;;24.30;64.10;;;;;;5140922;28;20520;-61
2021/06/06 16:22:46;;;;;;;9.90;2.03;;;24.40;64.00;;;;;;5142379;28;20674;-63
2021/06/06 16:25:25;;;;;;;6.27;2.20;;;24.40;63.90;;;;;;5147352;28;20690;-62
2021/06/06 16:27:58;;;;;;;5.15;1.75;;;24.40;63.60;;;;;;5140995;28;20508;-63
2021/06/06 16:30:32;;;;;;;5.25;1.95;;;24.50;63.50;;;;;;5138877;28;20518;-60
2021/06/06 16:33:07;;;;;;;5.82;2.10;;;24.50;63.60;;;;;;5136547;28;20365;-63
2021/06/06 16:35:39;;;;;;;6.07;2.20;;;24.50;63.60;;;;;;5152070;28;20045;-60
2021/06/06 16:38:13;;;;;;;11.15;1.88;;;24.50;63.80;;;;;;5164275;28;20049;-63
2021/06/06 16:40:46;;;;;;;8.35;3.08;;;24.50;63.60;;;;;;5166106;28;20048;-64
2021/06/06 16:43:20;;;;;;;6.47;2.50;;;24.40;63.60;;;;;;5163626;28;20049;-64
2021/06/06 16:45:55;;;;;;;6.13;2.25;;;24.40;63.60;;;;;;5137667;28;20575;-63
2021/06/06 16:48:27;;;;;;;5.30;2.05;;;24.40;63.80;;;;;;5160053;28;20053;-65
2021/06/06 16:51:06;;;;;;;9.35;2.13;;;24.40;63.60;;;;;;5148312;28;20535;-64
2021/06/06 16:53:39;;;;;;;6.72;1.80;;;24.40;63.60;;;;;;5160992;28;20049;-64
2021/06/06 16:56:13;;;;;;;10.77;3.05;;;24.40;63.60;;;;;;5151463;28;20041;-64
2021/06/06 16:58:45;;;;;;;11.65;2.58;;;24.40;63.60;;;;;;5168278;28;20057;-62
2021/06/06 17:01:22;;;;;;;15.57;2.72;;;24.50;63.90;;;;;;5167302;28;20532;-61
2021/06/06 17:03:56;;;;;;;10.98;2.90;;;24.60;64.10;;;;;;5179217;28;20049;-64
2021/06/06 17:06:29;;;;;;;14.55;3.00;;;24.60;63.90;;;;;;5186329;28;20072;-63
2021/06/06 17:09:04;;;;;;;12.13;2.75;;;24.60;63.60;;;;;;5190180;28;20053;-64
2021/06/06 17:11:37;;;;;;;13.55;2.97;;;24.70;63.40;;;;;;5186249;28;20049;-62
2021/06/06 17:14:10;;;;;;;20.17;3.03;;;24.70;63.30;;;;;;5185676;28;20053;-63
2021/06/06 17:16:42;;;;;;;15.43;2.50;;;24.70;63.20;;;;;;5186907;28;20429;-61
2021/06/06 17:19:15;;;;;;;16.70;3.30;;;24.70;63.00;;;;;;5176273;28;20077;-64
2021/06/06 17:21:47;;;;;;;13.13;3.20;;;24.60;62.90;;;;;;5187426;28;20057;-63
2021/06/06 17:24:20;;;;;;;14.07;2.60;;;24.60;62.90;;;;;;5173440;28;20313;-62
2021/06/06 17:26:53;;;;;;;12.43;3.10;;;24.60;62.80;;;;;;5186892;28;20052;-63
2021/06/06 17:29:27;;;;;;;11.40;2.72;;;24.60;63.00;;;;;;5195449;28;20065;-64
2021/06/06 17:32:02;;;;;;;17.42;3.70;;;24.60;63.20;;;;;;5184757;28;20057;-62
2021/06/06 17:34:35;;;;;;;18.33;2.88;;;24.60;63.70;;;;;;5182877;28;22034;-62
2021/06/06 17:37:08;;;;;;;19.43;3.60;;;24.50;63.50;;;;;;5196420;28;20053;-62
2021/06/06 17:39:40;;;;;;;16.92;3.40;;;24.50;63.40;;;;;;5163455;28;20524;-62
2021/06/06 17:42:13;;;;;;;12.80;2.90;;;24.50;63.50;;;;;;5196314;28;20049;-62
2021/06/06 17:44:45;;;;;;;12.55;3.40;;;24.50;63.50;;;;;;5191083;28;20303;-62
2021/06/06 17:47:21;;;;;;;15.52;3.65;;;24.40;63.40;;;;;;5184264;28;20046;-63
2021/06/06 17:49:53;;;;;;;16.88;2.80;;;24.40;63.40;;;;;;5168829;28;21799;-62
2021/06/06 17:52:26;;;;;;;12.80;2.47;;;24.40;63.50;;;;;;5185604;28;20056;-63
2021/06/06 17:54:59;;;;;;;10.98;3.00;;;24.30;63.40;;;;;;5187106;28;20505;-62
2021/06/06 17:57:31;;;;;;;17.10;2.90;;;24.30;64.00;;;;;;5182330;28;20064;-65
2021/06/06 18:00:05;;;;;;;18.45;3.80;;;24.30;63.70;;;;;;5192895;28;20531;-64
2021/06/06 18:02:45;;;;;;;22.27;4.05;;;24.20;63.80;;;;;;5180706;28;20667;-62
2021/06/06 18:05:19;;;;;;;20.73;3.70;;;24.20;64.10;;;;;;5178929;28;20056;-65
2021/06/06 18:08:04;;;;;;;18.52;3.03;;;24.30;64.40;;;;;;5160207;28;20049;-64
2021/06/06 18:10:38;;;;;;;18.75;3.92;;;24.20;64.50;;;;;;5196387;28;20064;-64
2021/06/06 18:13:13;;;;;;;13.90;3.50;;;24.20;64.70;;;;;;5189858;28;20413;-64
2021/06/06 18:15:47;;;;;;;28.50;4.70;;;24.20;64.90;;;;;;5182719;28;20057;-64
2021/06/06 18:18:19;;;;;;;;;;;24.30;65.20;;;;;;5189510;28;20104;-63
2021/06/06 18:20:52;;;;;;;25.52;4.15;;;24.20;65.20;;;;;;5167692;28;20400;-65
2021/06/06 18:23:26;;;;;;;33.67;5.68;;;24.20;65.20;;;;;;5176366;28;20052;-55
2021/06/06 18:25:59;;;;;;;25.50;4.57;;;24.30;65.50;;;;;;5190682;28;20048;-59
2021/06/06 18:28:33;;;;;;;28.77;5.18;;;24.30;65.30;;;;;;5190960;28;20583;-57
2021/06/06 18:31:08;;;;;;;24.42;4.40;;;24.30;65.30;;;;;;5188067;28;20072;-52
2021/06/06 18:33:42;;;;;;;26.50;4.30;;;24.30;65.10;;;;;;5191845;28;20056;-53
2021/06/06 18:36:15;;;;;;;25.90;4.05;;;24.20;64.90;;;;;;5187489;28;20067;-51
2021/06/06 18:38:49;;;;;;;35.83;6.25;;;24.20;64.80;;;;;;5181377;28;20048;-52
2021/06/06 18:41:23;;;;;;;27.27;5.65;;;24.20;65.00;;;;;;5186491;28;20056;-53
2021/06/06 18:43:57;;;;;;;19.33;3.97;;;24.20;65.00;;;;;;5184382;28;20064;-56
2021/06/06 18:46:29;;;;;;;;;;;24.10;64.90;;;;;;5183909;28;20053;-52
2021/06/06 18:49:03;;;;;;;14.52;3.38;;;24.10;65.00;;;;;;5180463;28;19928;-53
2021/06/06 18:51:37;;;;;;;25.92;5.10;;;24.10;65.00;;;;;;5182946;28;20061;-54
2021/06/06 18:54:09;;;;;;;23.83;3.88;;;24.10;65.00;;;;;;5166147;28;20239;-52
2021/06/06 18:56:42;;;;;;;22.80;4.60;;;24.10;65.20;;;;;;5195958;28;20056;-53
2021/06/06 18:59:15;;;;;;;24.20;4.55;;;24.10;65.20;;;;;;5191930;28;20057;-51
2021/06/06 19:01:48;;;;;;;26.25;4.13;;;24.10;65.30;;;;;;5203441;28;20053;-50
2021/06/06 19:04:23;;;;;;;27.05;5.05;;;24.10;65.20;;;;;;5183794;28;20061;-55
2021/06/06 19:06:55;;;;;;;23.13;4.47;;;24.10;65.30;;;;;;5205064;28;20520;-51
2021/06/06 19:09:28;;;;;;;23.17;3.72;;;24.10;65.20;;;;;;5209965;28;20441;-52
2021/06/06 19:12:02;;;;;;;23.95;3.72;;;24.10;65.30;;;;;;5205217;28;20065;-50
2021/06/06 19:14:41;;;;;;;23.13;4.03;;;24.00;65.30;;;;;;5208026;28;20409;-52
2021/06/06 19:17:14;;;;;;;20.58;4.18;;;24.00;65.30;;;;;;5209635;28;20064;-50
2021/06/06 19:19:47;;;;;;;22.85;3.70;;;24.00;65.60;;;;;;5205581;28;20053;-52
2021/06/06 19:22:21;;;;;;;24.35;4.78;;;24.00;65.50;;;;;;4496834;28;10000223;-53
2021/06/06 19:24:54;;;;;;;12.52;4.13;;;24.00;65.70;;;;;;5162453;28;20079;-53
2021/06/06 19:27:27;;;;;;;;;;;24.00;65.70;;;;;;5189518;28;20525;-48
2021/06/06 19:29:59;;;;;;;16.27;3.28;;;23.90;65.60;;;;;;5189815;28;19940;-55
2021/06/06 19:32:33;;;;;;;;;;;23.90;65.50;;;;;;5187639;28;20053;-49
2021/06/06 19:35:06;;;;;;;15.90;3.50;;;23.80;65.40;;;;;;5196856;28;19925;-51
2021/06/06 19:37:38;;;;;;;13.02;2.90;;;23.90;65.50;;;;;;5186871;28;20053;-53
2021/06/06 19:40:12;;;;;;;11.27;3.15;;;23.80;65.30;;;;;;5186928;28;20433;-50
2021/06/06 19:42:45;;;;;;;10.70;2.88;;;23.80;65.30;;;;;;5180083;28;20470;-53
2021/06/06 19:45:21;;;;;;;16.67;3.30;;;23.80;65.30;;;;;;5190536;28;20041;-51
2021/06/06 19:47:54;;;;;;;10.23;2.97;;;23.80;65.20;;;;;;5190849;28;20169;-51
2021/06/06 19:50:28;;;;;;;16.50;3.25;;;23.80;65.20;;;;;;5180466;28;20053;-50
2021/06/06 19:53:01;;;;;;;14.35;2.55;;;23.80;65.20;;;;;;5175103;28;20504;-54
2021/06/06 19:55:37;;;;;;;16.30;3.40;;;23.80;65.20;;;;;;5195926;28;20053;-48
2021/06/06 19:58:10;;;;;;;11.50;2.55;;;23.80;65.20;;;;;;5189200;28;20087;-49
2021/06/06 20:00:44;;;;;;;10.80;3.78;;;23.80;65.20;;;;;;5193433;28;20150;-54
2021/06/06 20:03:22;;;;;;;14.63;2.83;;;23.70;65.20;;;;;;5185869;28;20044;-48
2021/06/06 20:05:56;;;;;;;12.40;2.78;;;23.80;65.20;;;;;;5176780;28;20041;-52
2021/06/06 20:08:32;;;;;;;11.65;2.58;;;23.70;65.70;;;;;;5188200;28;20448;-48
2021/06/06 20:11:10;;;;;;;12.52;2.42;;;23.70;65.10;;;;;;5172762;28;20534;-48
2021/06/06 20:13:44;;;;;;;8.93;2.72;;;23.70;65.10;;;;;;5183503;28;20379;-48
2021/06/06 20:16:20;;;;;;;9.25;2.50;;;23.70;65.20;;;;;;5182610;28;20056;-50
2021/06/06 20:18:54;;;;;;;16.15;3.03;;;23.70;65.20;;;;;;5184978;28;20049;-49
2021/06/06 20:21:35;;;;;;;10.50;2.53;;;23.70;65.30;;;;;;5194146;28;20052;-48
2021/06/06 20:24:10;;;;;;;16.52;2.95;;;23.70;65.30;;;;;;5192720;28;20050;-50
2021/06/06 20:26:43;;;;;;;12.15;2.60;;;23.70;65.70;;;;;;5207723;28;20057;-50
2021/06/06 20:29:15;;;;;;;15.93;2.50;;;23.70;66.00;;;;;;5203193;28;20517;-48
2021/06/06 20:31:53;;;;;;;11.52;2.70;;;23.70;66.20;;;;;;5198052;28;20052;-48
2021/06/06 20:34:40;;;;;;;15.15;2.88;;;23.70;66.50;;;;;;5184648;28;20045;-54
2021/06/06 20:37:19;;;;;;;15.35;3.15;;;24.00;68.10;;;;;;5176359;28;20060;-56
2021/06/06 20:39:57;;;;;;;17.50;2.80;;;23.90;66.40;;;;;;5205800;28;20078;-55
2021/06/06 20:42:37;;;;;;;14.13;2.97;;;23.90;66.20;;;;;;5203467;28;20057;-57
2021/06/06 20:45:14;;;;;;;11.82;2.95;;;23.90;66.10;;;;;;5200785;28;20060;-55
2021/06/06 20:47:51;;;;;;;9.40;2.58;;;23.80;66.40;;;;;;5204989;28;20052;-55
2021/06/06 20:50:26;;;;;;;12.25;2.28;;;23.80;66.20;;;;;;5207440;28;20048;-55
2021/06/06 20:52:58;;;;;;;9.45;2.00;;;23.80;66.50;;;;;;5206081;28;20076;-53
2021/06/06 20:55:31;;;;;;;12.82;3.28;;;23.80;66.40;;;;;;5179884;28;20068;-55
2021/06/06 20:58:05;;;;;;;16.67;3.15;;;23.80;66.90;;;;;;5183512;28;20053;-51
2021/06/06 21:00:43;;;;;;;12.93;3.42;;;23.70;67.00;;;;;;5186009;28;20061;-56
2021/06/06 21:03:17;;;;;;;12.13;3.28;;;23.70;67.10;;;;;;5211220;28;20517;-54
2021/06/06 21:05:52;;;;;;;10.82;2.70;;;23.70;67.10;;;;;;5207929;28;20257;-56
2021/06/06 21:08:26;;;;;;;16.15;3.17;;;23.70;67.00;;;;;;5210232;28;20049;-57
2021/06/06 21:10:59;;;;;;;15.73;2.90;;;23.70;67.10;;;;;;5194927;28;20420;-55
2021/06/06 21:13:32;;;;;;;12.65;3.03;;;23.70;67.30;;;;;;5202827;28;20049;-53
2021/06/06 21:16:05;;;;;;;17.17;2.25;;;23.60;67.10;;;;;;5188823;28;20064;-53
2021/06/06 21:18:38;;;;;;;16.35;2.63;;;23.60;67.30;;;;;;5202453;28;20053;-53
2021/06/06 21:21:12;;;;;;;11.95;3.03;;;23.60;67.40;;;;;;5212807;28;20260;-55
2021/06/06 21:23:45;;;;;;;13.80;1.95;;;23.60;67.40;;;;;;5209949;28;20691;-54
2021/06/06 21:26:21;;;;;;;12.40;2.55;;;23.60;67.30;;;;;;5213712;28;20057;-54
2021/06/06 21:28:59;;;;;;;15.50;2.75;;;23.60;67.40;;;;;;5212815;28;20052;-55
2021/06/06 21:31:38;;;;;;;10.50;1.80;;;23.60;67.50;;;;;;5210706;28;20049;-53
2021/06/06 21:34:10;;;;;;;12.65;2.33;;;23.50;67.50;;;;;;5208425;28;20088;-55
2021/06/06 21:36:43;;;;;;;8.13;2.88;;;23.50;67.50;;;;;;5211086;28;20509;-53
2021/06/06 21:39:18;;;;;;;8.87;2.23;;;23.50;67.40;;;;;;5203326;28;20064;-55
2021/06/06 21:41:51;;;;;;;17.15;1.88;;;23.50;67.60;;;;;;5208925;28;20060;-55
2021/06/06 21:44:25;;;;;;;4.25;1.70;;;23.50;67.60;;;;;;5211255;28;20052;-53
2021/06/06 21:46:58;;;;;;;6.63;1.67;;;23.50;67.60;;;;;;5211253;28;20053;-55
2021/06/06 21:49:31;;;;;;;6.13;1.85;;;23.50;67.60;;;;;;5212590;28;20076;-55
2021/06/06 21:52:05;;;;;;;7.15;2.05;;;23.50;67.70;;;;;;5210385;28;20061;-54
2021/06/06 21:54:37;;;;;;;10.07;1.67;;;23.50;68.20;;;;;;5210164;28;20058;-55
2021/06/06 21:57:10;;;;;;;10.32;2.13;;;23.50;67.60;;;;;;5212190;28;20057;-51
2021/06/06 21:59:42;;;;;;;7.43;1.90;;;23.50;67.70;;;;;;5189866;28;20420;-55
2021/06/06 22:02:15;;;;;;;11.05;2.25;;;23.50;67.70;;;;;;5207104;28;20509;-53
2021/06/06 22:04:48;;;;;;;4.80;1.50;;;23.50;67.60;;;;;;5211591;28;20049;-52
2021/06/06 22:07:20;;;;;;;10.88;1.75;;;23.50;67.60;;;;;;5206809;28;20730;-52
2021/06/06 22:09:53;;;;;;;6.17;1.63;;;23.40;67.60;;;;;;4163639;28;10001253;-54
2021/06/06 22:12:25;;;;;;;10.10;1.85;;;23.40;67.50;;;;;;5207465;28;20053;-54
2021/06/06 22:14:58;;;;;;;6.57;1.50;;;23.40;67.50;;;;;;5209794;28;20403;-54
2021/06/06 22:17:31;;;;;;;8.37;1.67;;;23.40;67.60;;;;;;5213638;28;20060;-53
2021/06/06 22:20:41;;;;;;;4.13;1.30;;;23.40;67.60;;;;;;5209522;28;20049;-55
2021/06/06 22:23:51;;;;;;;2.42;1.27;;;23.40;67.40;;;;;;5205795;28;20061;-50
2021/06/06 22:27:01;;;;;;;2.30;1.48;;;23.40;67.40;;;;;;5210387;28;20574;-55
2021/06/06 22:30:12;;;;;;;5.40;1.40;;;23.40;67.40;;;;;;5209186;28;20508;-53
2021/06/06 22:33:22;;;;;;;3.70;1.20;;;23.40;67.40;;;;;;5208975;28;20052;-54
2021/06/06 22:36:32;;;;;;;6.25;1.98;;;23.30;67.30;;;;;;5209884;28;20064;-54
2021/06/06 22:39:42;;;;;;;2.92;1.13;;;23.30;67.30;;;;;;5210131;28;20496;-53
2021/06/06 22:42:52;;;;;;;1.90;0.93;;;23.30;67.30;;;;;;5207205;28;20595;-52
2021/06/06 22:46:05;;;;;;;3.90;1.00;;;23.30;67.40;;;;;;5189348;28;20278;-54
2021/06/06 22:49:15;;;;;;;2.50;1.10;;;23.30;67.40;;;;;;5202411;28;20053;-53